createdAt,value
2019-05-30T00:00:42.780Z,6.97
2019-05-30T00:03:17.114Z,7.28
2019-05-30T00:05:51.413Z,9.00
2019-05-30T00:08:25.602Z,8.78
2019-05-30T00:11:00.624Z,10.05
2019-05-30T00:13:34.549Z,9.53
2019-05-30T00:16:08.259Z,10.00
2019-05-30T00:18:42.086Z,10.35
2019-05-30T00:21:16.275Z,9.43
2019-05-30T00:23:50.670Z,9.93
2019-05-30T00:26:24.298Z,8.83
2019-05-30T00:28:58.615Z,10.00
2019-05-30T00:31:32.300Z,8.85
2019-05-30T00:34:06.539Z,8.43
2019-05-30T00:36:40.761Z,8.75
2019-05-30T00:39:14.998Z,8.55
2019-05-30T00:41:48.751Z,8.83
2019-05-30T00:44:22.995Z,8.88
2019-05-30T00:46:58.053Z,8.60
2019-05-30T00:49:32.651Z,8.20
2019-05-30T00:52:06.994Z,8.80
2019-05-30T00:54:41.215Z,8.08
2019-05-30T00:57:14.994Z,7.87
2019-05-30T00:59:48.719Z,7.70
2019-05-30T01:02:23.740Z,8.23
2019-05-30T01:04:58.854Z,7.25
2019-05-30T01:07:33.170Z,7.87
2019-05-30T01:10:07.451Z,7.75
2019-05-30T01:12:41.518Z,7.75
2019-05-30T01:15:15.835Z,7.12
2019-05-30T01:17:49.668Z,7.45
2019-05-30T01:20:23.756Z,7.12
2019-05-30T01:22:59.096Z,7.40
2019-05-30T01:25:33.751Z,7.28
2019-05-30T01:28:07.861Z,7.28
2019-05-30T01:30:41.550Z,7.35
2019-05-30T01:33:14.852Z,7.10
2019-05-30T01:35:48.199Z,8.10
2019-05-30T01:38:22.074Z,6.80
2019-05-30T01:40:56.236Z,6.47
2019-05-30T01:43:30.192Z,5.58
2019-05-30T01:46:04.384Z,5.55
2019-05-30T01:48:38.593Z,5.10
2019-05-30T01:51:12.843Z,5.22
2019-05-30T01:53:46.748Z,5.72
2019-05-30T01:56:20.940Z,5.70
2019-05-30T01:58:54.778Z,5.50
2019-05-30T02:01:29.002Z,5.03
2019-05-30T02:04:03.302Z,5.08
2019-05-30T02:06:38.285Z,4.50
2019-05-30T02:09:12.144Z,5.30
2019-05-30T02:11:46.313Z,4.78
2019-05-30T02:14:20.553Z,5.20
2019-05-30T02:16:54.644Z,5.03
2019-05-30T02:19:28.483Z,4.90
2019-05-30T02:22:02.304Z,4.75
2019-05-30T02:24:36.020Z,5.20
2019-05-30T02:27:10.408Z,4.95
2019-05-30T02:29:44.242Z,5.22
2019-05-30T02:32:17.277Z,5.12
2019-05-30T02:34:51.557Z,4.62
2019-05-30T02:37:25.355Z,5.42
2019-05-30T02:40:02.892Z,5.12
2019-05-30T02:42:35.390Z,5.08
2019-05-30T02:45:11.949Z,5.15
2019-05-30T02:47:45.036Z,5.25
2019-05-30T02:50:19.130Z,5.33
2019-05-30T02:52:53.025Z,4.30
2019-05-30T02:55:26.803Z,5.22
2019-05-30T02:58:01.348Z,4.90
2019-05-30T03:00:38.935Z,5.33
2019-05-30T03:03:14.598Z,5.22
2019-05-30T03:05:48.967Z,5.08
2019-05-30T03:08:22.770Z,5.37
2019-05-30T03:10:57.082Z,5.30
2019-05-30T03:13:30.386Z,4.92
2019-05-30T03:16:05.025Z,4.62
2019-05-30T03:18:39.573Z,4.92
2019-05-30T03:21:15.595Z,5.40
2019-05-30T03:23:49.832Z,4.97
2019-05-30T03:26:24.007Z,5.25
2019-05-30T03:28:57.826Z,5.40
2019-05-30T03:31:35.053Z,5.35
2019-05-30T03:34:18.031Z,5.10
2019-05-30T03:36:45.605Z,4.92
2019-05-30T03:39:19.509Z,5.50
2019-05-30T03:41:53.738Z,5.58
2019-05-30T03:44:28.043Z,4.50
2019-05-30T03:47:06.780Z,5.00
2019-05-30T03:49:46.021Z,5.58
2019-05-30T03:52:21.863Z,5.33
2019-05-30T03:54:55.756Z,5.40
2019-05-30T03:57:34.260Z,5.42
2019-05-30T04:00:16.024Z,4.90
2019-05-30T04:03:00.973Z,4.65
2019-05-30T04:05:41.742Z,5.70
2019-05-30T04:08:19.696Z,5.60
2019-05-30T04:10:58.442Z,5.78
2019-05-30T04:13:51.991Z,5.00
2019-05-30T04:16:26.212Z,5.60
2019-05-30T04:19:00.644Z,5.15
2019-05-30T04:21:34.282Z,6.10
2019-05-30T04:24:09.788Z,6.35
2019-05-30T04:26:44.710Z,5.50
2019-05-30T04:29:19.116Z,5.65
2019-05-30T04:31:53.366Z,5.60
2019-05-30T04:34:27.560Z,5.55
2019-05-30T04:37:02.442Z,4.83
2019-05-30T04:39:36.137Z,4.97
2019-05-30T04:42:11.340Z,5.03
2019-05-30T04:44:45.903Z,5.17
2019-05-30T04:47:20.792Z,5.00
2019-05-30T04:49:55.032Z,4.90
2019-05-30T04:52:29.273Z,4.92
2019-05-30T04:55:03.047Z,4.70
2019-05-30T04:57:36.753Z,4.62
2019-05-30T05:00:12.984Z,4.40
2019-05-30T05:02:46.416Z,3.92
2019-05-30T05:05:26.550Z,3.72
2019-05-30T05:07:56.501Z,3.77
2019-05-30T05:10:30.339Z,3.62
2019-05-30T05:13:04.632Z,3.83
2019-05-30T05:15:38.851Z,3.37
2019-05-30T05:18:12.914Z,3.37
2019-05-30T05:20:45.300Z,3.52
2019-05-30T05:23:19.398Z,3.33
2019-05-30T05:26:00.772Z,3.33
2019-05-30T05:28:27.214Z,3.17
2019-05-30T05:30:59.595Z,3.67
2019-05-30T05:33:32.645Z,3.25
2019-05-30T05:36:05.542Z,3.62
2019-05-30T05:38:37.633Z,3.12
2019-05-30T05:41:10.537Z,2.60
2019-05-30T05:43:42.523Z,2.65
2019-05-30T05:46:16.325Z,2.92
2019-05-30T05:48:49.441Z,3.00
2019-05-30T05:51:22.753Z,3.40
2019-05-30T05:53:55.485Z,2.67
2019-05-30T05:56:29.158Z,3.33
2019-05-30T05:59:02.278Z,3.15
2019-05-30T06:01:35.983Z,3.50
2019-05-30T06:04:13.238Z,3.70
2019-05-30T06:06:44.516Z,5.03
2019-05-30T06:09:18.717Z,6.90
2019-05-30T06:11:52.560Z,4.67
2019-05-30T06:14:28.037Z,3.27
2019-05-30T06:17:02.697Z,2.80
2019-05-30T06:19:45.939Z,2.98
2019-05-30T06:22:12.777Z,3.02
2019-05-30T06:24:47.596Z,2.27
2019-05-30T06:27:21.942Z,2.30
2019-05-30T06:29:55.251Z,3.20
2019-05-30T06:32:28.946Z,3.30
2019-05-30T06:35:03.144Z,2.90
2019-05-30T06:37:36.870Z,2.50
2019-05-30T06:40:11.400Z,2.65
2019-05-30T06:42:45.147Z,2.20
2019-05-30T06:45:20.862Z,2.25
2019-05-30T06:47:55.167Z,2.27
2019-05-30T06:50:29.249Z,2.12
2019-05-30T06:53:02.270Z,2.80
2019-05-30T06:55:35.488Z,1.90
2019-05-30T06:58:08.523Z,1.57
2019-05-30T07:00:43.772Z,1.60
2019-05-30T07:03:17.533Z,1.90
2019-05-30T07:05:51.523Z,1.47
2019-05-30T07:08:26.480Z,1.55
2019-05-30T07:11:00.215Z,1.47
2019-05-30T07:13:33.743Z,1.45
2019-05-30T07:16:08.318Z,1.90
2019-05-30T07:18:42.114Z,2.00
2019-05-30T07:21:15.412Z,1.62
2019-05-30T07:23:48.817Z,1.50
2019-05-30T07:26:23.733Z,1.62
2019-05-30T07:29:00.524Z,1.95
2019-05-30T07:31:34.264Z,2.15
2019-05-30T07:34:07.989Z,1.82
2019-05-30T07:36:42.147Z,2.10
2019-05-30T07:39:16.027Z,2.15
2019-05-30T07:42:05.334Z,1.85
2019-05-30T07:44:25.307Z,2.27
2019-05-30T07:46:59.503Z,2.45
2019-05-30T07:49:34.632Z,2.22
2019-05-30T07:52:09.074Z,1.92
2019-05-30T07:54:43.226Z,1.87
2019-05-30T07:57:17.610Z,2.35
2019-05-30T07:59:51.952Z,1.72
2019-05-30T08:02:27.406Z,1.57
2019-05-30T08:05:01.504Z,1.65
2019-05-30T08:07:35.176Z,2.10
2019-05-30T08:10:09.030Z,1.62
2019-05-30T08:12:43.203Z,1.80
2019-05-30T08:15:17.244Z,1.72
2019-05-30T08:17:51.449Z,2.08
2019-05-30T08:20:24.460Z,1.72
2019-05-30T08:22:58.751Z,1.55
2019-05-30T08:25:32.553Z,1.32
2019-05-30T08:28:06.373Z,1.57
2019-05-30T08:30:38.842Z,1.80
2019-05-30T08:33:13.078Z,1.65
2019-05-30T08:35:49.790Z,4.65
2019-05-30T08:38:22.595Z,1.65
2019-05-30T08:40:55.807Z,1.50
2019-05-30T08:43:29.647Z,1.60
2019-05-30T08:46:03.863Z,2.15
2019-05-30T08:48:38.212Z,1.98
2019-05-30T08:51:12.660Z,2.00
2019-05-30T08:53:46.988Z,1.52
2019-05-30T08:56:21.227Z,1.47
2019-05-30T08:58:55.420Z,1.72
2019-05-30T09:01:29.205Z,1.40
2019-05-30T09:04:02.611Z,2.00
2019-05-30T09:06:35.921Z,1.60
2019-05-30T09:09:10.239Z,1.52
2019-05-30T09:11:44.579Z,1.57
2019-05-30T09:14:18.766Z,1.45
2019-05-30T09:16:53.021Z,1.80
2019-05-30T09:19:26.788Z,1.55
2019-05-30T09:22:00.597Z,1.52
2019-05-30T09:24:34.729Z,2.27
2019-05-30T09:27:08.235Z,1.50
2019-05-30T09:29:42.909Z,1.50
2019-05-30T09:32:17.260Z,1.32
2019-05-30T09:34:51.572Z,1.50
2019-05-30T09:37:25.816Z,1.98
2019-05-30T09:40:00.031Z,1.50
2019-05-30T09:42:34.096Z,1.62
2019-05-30T09:45:09.939Z,1.50
2019-05-30T09:47:45.167Z,1.30
2019-05-30T09:50:18.594Z,1.80
2019-05-30T09:52:52.869Z,1.30
2019-05-30T09:55:26.126Z,1.40
2019-05-30T09:57:58.973Z,1.32
2019-05-30T10:00:34.357Z,1.22
2019-05-30T10:03:09.211Z,1.72
2019-05-30T10:05:44.791Z,1.65
2019-05-30T10:08:18.541Z,1.65
2019-05-30T10:10:53.519Z,1.50
2019-05-30T10:13:27.898Z,1.80
2019-05-30T10:16:02.242Z,1.55
2019-05-30T10:18:36.756Z,1.72
2019-05-30T10:21:10.031Z,1.60
2019-05-30T10:23:45.715Z,1.27
2019-05-30T10:26:19.144Z,1.37
2019-05-30T10:28:53.324Z,1.92
2019-05-30T10:31:27.708Z,1.32
2019-05-30T10:34:01.821Z,1.45
2019-05-30T10:36:43.829Z,2.15
2019-05-30T10:39:10.901Z,1.70
2019-05-30T10:41:44.605Z,1.65
2019-05-30T10:44:20.355Z,1.70
2019-05-30T10:46:54.709Z,1.57
2019-05-30T10:49:34.670Z,1.65
2019-05-30T10:52:04.643Z,1.70
2019-05-30T10:54:39.785Z,1.80
2019-05-30T10:57:13.993Z,1.80
2019-05-30T10:59:48.902Z,1.40
2019-05-30T11:02:24.169Z,1.37
2019-05-30T11:04:57.943Z,1.95
2019-05-30T11:08:00.568Z,1.80
2019-05-30T11:10:35.674Z,1.52
2019-05-30T11:13:10.415Z,1.37
2019-05-30T11:15:44.526Z,1.27
2019-05-30T11:18:18.983Z,1.37
2019-05-30T11:20:54.069Z,1.50
2019-05-30T11:23:28.363Z,2.30
2019-05-30T11:26:02.701Z,1.50
2019-05-30T11:28:36.471Z,1.72
2019-05-30T11:31:10.314Z,1.20
2019-05-30T11:33:44.523Z,1.60
2019-05-30T11:36:18.729Z,1.67
2019-05-30T11:38:53.670Z,1.57
2019-05-30T11:41:27.810Z,2.80
2019-05-30T11:44:04.127Z,2.02
2019-05-30T11:46:37.477Z,1.50
2019-05-30T11:49:11.549Z,1.70
2019-05-30T11:51:45.408Z,1.22
2019-05-30T11:54:19.567Z,1.25
2019-05-30T11:56:54.021Z,1.50
2019-05-30T11:59:26.807Z,1.62
2019-05-30T12:02:00.533Z,1.50
2019-05-30T12:04:34.228Z,1.40
2019-05-30T12:07:07.522Z,1.52
2019-05-30T12:09:40.853Z,1.30
2019-05-30T12:12:14.760Z,1.60
2019-05-30T12:14:47.174Z,1.45
2019-05-30T12:17:19.229Z,1.37
2019-05-30T12:19:51.431Z,1.30
2019-05-30T12:22:25.344Z,1.10
2019-05-30T12:24:59.788Z,1.40
2019-05-30T12:27:34.068Z,1.40
2019-05-30T12:30:07.081Z,1.60
2019-05-30T12:32:39.950Z,1.95
2019-05-30T12:35:14.753Z,1.52
2019-05-30T12:37:55.045Z,1.40
2019-05-30T12:40:23.225Z,1.77
2019-05-30T12:42:58.934Z,1.82
2019-05-30T12:45:30.663Z,1.40
2019-05-30T12:48:04.633Z,1.35
2019-05-30T12:50:38.214Z,1.45
2019-05-30T12:53:12.419Z,1.47
2019-05-30T12:55:46.054Z,1.45
2019-05-30T12:58:19.948Z,1.75
2019-05-30T13:00:54.658Z,1.70
2019-05-30T13:03:28.027Z,1.50
2019-05-30T13:06:03.400Z,1.30
2019-05-30T13:08:37.958Z,1.62
2019-05-30T13:11:11.664Z,1.50
2019-05-30T13:13:45.537Z,1.45
2019-05-30T13:16:19.788Z,1.50
2019-05-30T13:18:53.564Z,1.62
2019-05-30T13:21:27.683Z,1.60
2019-05-30T13:24:01.881Z,2.10
2019-05-30T13:26:34.258Z,1.80
2019-05-30T13:29:06.744Z,1.60
2019-05-30T13:31:40.140Z,1.70
2019-05-30T13:34:12.521Z,1.72
2019-05-30T13:36:44.456Z,2.10
2019-05-30T13:39:17.007Z,1.70
2019-05-30T13:41:50.201Z,1.37
2019-05-30T13:44:23.869Z,1.50
2019-05-30T13:46:58.408Z,1.52
2019-05-30T13:49:32.723Z,1.55
2019-05-30T13:52:07.275Z,1.52
2019-05-30T13:54:41.584Z,1.60
2019-05-30T13:57:15.338Z,1.70
2019-05-30T13:59:49.097Z,1.22
2019-05-30T14:02:22.980Z,1.70
2019-05-30T14:04:57.167Z,1.70
2019-05-30T14:07:30.968Z,1.30
2019-05-30T14:10:04.692Z,1.15
2019-05-30T14:12:37.972Z,1.40
2019-05-30T14:15:13.917Z,1.75
2019-05-30T14:17:48.012Z,1.37
2019-05-30T14:20:23.278Z,1.45
2019-05-30T14:22:57.088Z,1.30
2019-05-30T14:25:30.793Z,1.40
2019-05-30T14:28:05.588Z,1.25
2019-05-30T14:30:40.147Z,1.40
2019-05-30T14:33:14.499Z,1.95
2019-05-30T14:35:48.224Z,1.70
2019-05-30T14:38:22.385Z,1.52
2019-05-30T14:40:55.885Z,1.40
2019-05-30T14:43:30.228Z,1.10
2019-05-30T14:46:04.346Z,1.22
2019-05-30T14:48:37.266Z,1.50
2019-05-30T14:51:12.847Z,1.30
2019-05-30T14:53:47.030Z,1.40
2019-05-30T14:56:20.351Z,1.10
2019-05-30T14:58:54.117Z,1.10
2019-05-30T15:01:27.456Z,1.45
2019-05-30T15:04:01.709Z,1.40
2019-05-30T15:06:36.592Z,1.15
2019-05-30T15:09:17.723Z,1.10
2019-05-30T15:11:46.788Z,1.10
2019-05-30T15:14:21.741Z,1.05
2019-05-30T15:16:55.466Z,1.27
2019-05-30T15:19:48.020Z,1.20
2019-05-30T15:22:22.310Z,1.45
2019-05-30T15:24:56.014Z,1.10
2019-05-30T15:27:30.287Z,1.30
2019-05-30T15:30:04.397Z,1.15
2019-05-30T15:32:38.659Z,1.22
2019-05-30T15:35:12.828Z,1.40
2019-05-30T15:37:47.154Z,1.50
2019-05-30T15:40:22.612Z,1.50
2019-05-30T15:42:56.692Z,1.35
2019-05-30T15:45:31.033Z,1.32
2019-05-30T15:48:04.122Z,1.35
2019-05-30T15:50:38.228Z,1.47
2019-05-30T15:53:13.116Z,1.47
2019-05-30T15:55:47.414Z,1.37
2019-05-30T15:58:21.628Z,1.72
2019-05-30T16:00:55.414Z,1.20
2019-05-30T16:03:30.486Z,1.50
2019-05-30T16:06:03.687Z,1.22
2019-05-30T16:08:37.963Z,1.30
2019-05-30T16:11:12.741Z,1.40
2019-05-30T16:13:46.717Z,1.70
2019-05-30T16:16:33.783Z,1.37
2019-05-30T16:18:56.227Z,1.20
2019-05-30T16:21:30.128Z,1.60
2019-05-30T16:24:04.995Z,1.60
2019-05-30T16:26:38.422Z,1.62
2019-05-30T16:29:11.941Z,1.50
2019-05-30T16:31:46.214Z,1.62
2019-05-30T16:34:20.312Z,1.50
2019-05-30T16:36:54.258Z,1.50
2019-05-30T16:39:28.351Z,1.55
2019-05-30T16:42:02.163Z,1.42
2019-05-30T16:44:35.964Z,1.42
2019-05-30T16:47:09.678Z,1.35
2019-05-30T16:49:43.477Z,1.52
2019-05-30T16:52:19.126Z,1.67
2019-05-30T16:54:56.681Z,1.60
2019-05-30T16:57:28.672Z,1.80
2019-05-30T17:00:02.406Z,1.52
2019-05-30T17:02:36.633Z,1.40
2019-05-30T17:05:10.236Z,1.25
2019-05-30T17:07:44.310Z,1.67
2019-05-30T17:10:27.685Z,1.30
2019-05-30T17:12:55.321Z,1.60
2019-05-30T17:15:29.608Z,1.70
2019-05-30T17:18:04.148Z,1.67
2019-05-30T17:20:39.293Z,1.75
2019-05-30T17:23:13.237Z,1.57
2019-05-30T17:25:49.364Z,1.80
2019-05-30T17:28:24.352Z,1.50
2019-05-30T17:30:57.676Z,1.47
2019-05-30T17:33:31.557Z,1.80
2019-05-30T17:36:05.827Z,1.72
2019-05-30T17:38:40.041Z,1.62
2019-05-30T17:41:13.430Z,1.67
2019-05-30T17:43:47.243Z,1.67
2019-05-30T17:46:21.438Z,1.98
2019-05-30T17:48:55.224Z,1.45
2019-05-30T17:51:30.035Z,1.80
2019-05-30T17:54:04.326Z,1.70
2019-05-30T17:56:38.226Z,1.85
2019-05-30T17:59:11.571Z,1.92
2019-05-30T18:01:44.524Z,1.90
2019-05-30T18:04:16.944Z,1.85
2019-05-30T18:06:49.006Z,1.62
2019-05-30T18:09:22.863Z,1.90
2019-05-30T18:11:56.208Z,1.80
2019-05-30T18:14:29.252Z,1.62
2019-05-30T18:17:02.269Z,1.80
2019-05-30T18:19:36.513Z,1.87
2019-05-30T18:22:10.362Z,2.08
2019-05-30T18:24:44.118Z,1.98
2019-05-30T18:27:17.853Z,2.15
2019-05-30T18:29:52.099Z,1.98
2019-05-30T18:32:26.294Z,1.72
2019-05-30T18:34:59.606Z,1.72
2019-05-30T18:37:33.922Z,1.80
2019-05-30T18:40:07.914Z,1.70
2019-05-30T18:42:41.366Z,1.60
2019-05-30T18:45:14.605Z,8.00
2019-05-30T18:47:48.388Z,16.45
2019-05-30T18:50:20.974Z,14.07
2019-05-30T18:52:53.483Z,20.88
2019-05-30T18:55:26.554Z,18.95
2019-05-30T18:57:59.607Z,20.10
2019-05-30T19:00:33.212Z,11.30
2019-05-30T19:03:08.044Z,5.30
2019-05-30T19:05:41.560Z,4.20
2019-05-30T19:08:14.500Z,3.47
2019-05-30T19:10:47.493Z,3.33
2019-05-30T19:13:20.451Z,3.35
2019-05-30T19:15:54.985Z,3.98
2019-05-30T19:18:27.866Z,2.40
2019-05-30T19:21:01.233Z,2.67
2019-05-30T19:23:37.891Z,3.05
2019-05-30T19:26:11.277Z,2.98
2019-05-30T19:28:44.541Z,2.87
2019-05-30T19:31:19.221Z,2.90
2019-05-30T19:33:52.655Z,2.90
2019-05-30T19:36:26.832Z,2.80
2019-05-30T19:38:59.423Z,3.12
2019-05-30T19:41:48.530Z,3.27
2019-05-30T19:44:07.039Z,3.98
2019-05-30T19:46:40.363Z,6.08
2019-05-30T19:49:12.891Z,7.30
2019-05-30T19:51:45.409Z,6.03
2019-05-30T19:54:19.056Z,7.05
2019-05-30T19:56:52.469Z,6.55
2019-05-30T19:59:25.821Z,6.72
2019-05-30T20:01:58.319Z,6.87
2019-05-30T20:04:30.305Z,6.28
2019-05-30T20:07:03.331Z,6.15
2019-05-30T20:09:35.292Z,6.28
2019-05-30T20:12:09.199Z,5.67
2019-05-30T20:14:42.568Z,7.42
2019-05-30T20:17:15.619Z,7.10
2019-05-30T20:19:50.004Z,6.05
2019-05-30T20:22:22.015Z,5.83
2019-05-30T20:24:54.057Z,5.53
2019-05-30T20:27:27.658Z,5.60
2019-05-30T20:30:01.053Z,5.87
2019-05-30T20:32:34.412Z,5.17
2019-05-30T20:35:07.470Z,5.87
2019-05-30T20:37:40.688Z,6.95
2019-05-30T20:40:15.907Z,6.87
2019-05-30T20:42:48.782Z,7.78
2019-05-30T20:45:21.872Z,7.37
2019-05-30T20:47:54.707Z,6.60
2019-05-30T20:50:27.828Z,5.90
2019-05-30T20:53:02.223Z,5.45
2019-05-30T20:55:36.407Z,5.42
2019-05-30T20:58:09.169Z,3.80
2019-05-30T21:00:43.852Z,3.83
2019-05-30T21:03:18.446Z,4.28
2019-05-30T21:05:52.460Z,4.12
2019-05-30T21:08:27.671Z,3.95
2019-05-30T21:11:02.735Z,3.98
2019-05-30T21:13:38.197Z,3.70
2019-05-30T21:16:14.769Z,3.83
2019-05-30T21:18:50.952Z,4.28
2019-05-30T21:21:25.118Z,4.37
2019-05-30T21:23:59.217Z,4.35
2019-05-30T21:26:32.992Z,4.60
2019-05-30T21:29:06.811Z,5.20
2019-05-30T21:31:41.492Z,4.30
2019-05-30T21:34:15.727Z,4.97
2019-05-30T21:36:49.415Z,5.50
2019-05-30T21:39:23.619Z,5.60
2019-05-30T21:41:57.830Z,5.85
2019-05-30T21:44:32.066Z,5.75
2019-05-30T21:47:06.374Z,5.33
2019-05-30T21:49:40.910Z,5.30
2019-05-30T21:52:15.332Z,5.22
2019-05-30T21:54:50.152Z,4.95
2019-05-30T21:57:24.698Z,5.40
2019-05-30T21:59:59.008Z,5.40
2019-05-30T22:02:33.316Z,5.70
2019-05-30T22:05:06.801Z,5.30
2019-05-30T22:07:40.951Z,6.30
2019-05-30T22:10:14.703Z,5.80
2019-05-30T22:12:49.460Z,7.25
2019-05-30T22:15:24.280Z,9.78
2019-05-30T22:17:57.664Z,7.92
2019-05-30T22:20:31.369Z,7.33
2019-05-30T22:23:05.595Z,9.20
2019-05-30T22:25:39.808Z,8.40
2019-05-30T22:28:12.698Z,7.70
2019-05-30T22:30:46.418Z,7.40
2019-05-30T22:33:20.137Z,6.87
2019-05-30T22:35:53.887Z,6.58
2019-05-30T22:38:28.250Z,6.67
2019-05-30T22:41:02.029Z,6.10
2019-05-30T22:43:35.847Z,6.40
2019-05-30T22:46:09.521Z,6.08
2019-05-30T22:48:44.401Z,5.90
2019-05-30T22:51:18.831Z,6.35
2019-05-30T22:53:53.230Z,6.50
2019-05-30T22:56:27.634Z,6.78
2019-05-30T22:59:01.874Z,6.30
2019-05-30T23:01:35.532Z,6.58
2019-05-30T23:04:09.776Z,6.12
2019-05-30T23:06:43.563Z,6.17
2019-05-30T23:09:16.902Z,7.30
2019-05-30T23:11:51.664Z,7.78
2019-05-30T23:14:25.814Z,9.38
2019-05-30T23:16:59.618Z,10.40
2019-05-30T23:19:33.240Z,10.85
2019-05-30T23:22:06.520Z,11.10
2019-05-30T23:24:40.538Z,11.10
2019-05-30T23:27:14.421Z,10.15
2019-05-30T23:29:48.015Z,9.65
2019-05-30T23:32:22.233Z,10.10
2019-05-30T23:34:56.487Z,9.23
2019-05-30T23:37:30.333Z,9.53
2019-05-30T23:40:03.667Z,8.95
2019-05-30T23:42:37.840Z,8.50
2019-05-30T23:45:12.515Z,8.23
2019-05-30T23:47:46.755Z,8.68
2019-05-30T23:50:21.136Z,7.97
2019-05-30T23:52:56.258Z,7.50
2019-05-30T23:55:30.077Z,8.08
2019-05-30T23:58:04.211Z,7.95
